Time;durP1;ratioP1;P1;durP2;ratioP2;P2;SDS_P1;SDS_P2;PMS_P1;PMS_P2;Temp;Humidity;BMP_temperature;BMP_pressure;BME280_temperature;BME280_humidity;BME280_pressure;Samples;Min_cycle;Max_cycle;Signal;HPM_P1;HPM_P2
2022/04/05 00:00:42;;;;;;;14.50;4.50;;;7.90;81.80;;;7.76;56.61;94752.09;5060547;28;20478;-54
2022/04/05 00:03:10;;;;;;;7.60;4.30;;;7.90;82.50;;;7.76;56.93;94754.72;5058377;28;20508;-53
2022/04/05 00:05:37;;;;;;;11.70;4.50;;;7.90;82.50;;;7.74;56.79;94756.63;5056360;28;20505;-53
2022/04/05 00:08:05;;;;;;;4.83;4.43;;;7.80;83.00;;;7.72;57.10;94754.13;5059080;28;20474;-54
2022/04/05 00:10:34;;;;;;;3.90;3.50;;;7.80;82.90;;;7.70;57.75;94744.75;5057866;28;20486;-54
2022/04/05 00:13:05;;;;;;;6.77;3.87;;;7.80;83.70;;;7.70;56.76;94750.00;5060647;28;20835;-54
2022/04/05 00:15:33;;;;;;;17.77;4.70;;;7.80;83.30;;;7.67;56.99;94751.06;5056019;28;20475;-54
2022/04/05 00:18:00;;;;;;;4.53;4.07;;;7.80;83.40;;;7.66;57.22;94752.00;5051539;28;20448;-53
2022/04/05 00:20:27;;;;;;;4.87;3.97;;;7.80;83.90;;;7.66;56.90;94757.25;5056761;28;20479;-53
2022/04/05 00:22:55;;;;;;;6.07;4.13;;;7.70;83.40;;;7.65;57.42;94752.13;5058895;28;20471;-54
2022/04/05 00:25:22;;;;;;;5.10;4.53;;;7.70;83.80;;;7.66;57.64;94753.81;5057938;28;20551;-56
2022/04/05 00:27:52;;;;;;;4.93;4.43;;;7.70;84.60;;;7.65;57.23;94749.50;5055318;28;20521;-55
2022/04/05 00:30:20;;;;;;;4.90;4.40;;;7.70;84.20;;;7.63;57.37;94748.81;5054326;28;20475;-54
2022/04/05 00:32:47;;;;;;;6.23;4.53;;;7.70;83.70;;;7.61;57.68;94755.97;5056742;28;20462;-55
2022/04/05 00:35:14;;;;;;;4.90;4.47;;;7.70;83.90;;;7.60;57.23;94752.50;5059647;28;20475;-54
2022/04/05 00:37:41;;;;;;;5.10;4.27;;;7.70;83.80;;;7.58;57.66;94743.97;5051853;28;20500;-55
2022/04/05 00:40:10;;;;;;;8.67;5.00;;;7.70;84.00;;;7.56;57.12;94743.25;5059260;28;21042;-55
2022/04/05 00:42:38;;;;;;;5.67;4.43;;;7.70;83.80;;;7.54;57.55;94740.78;5053269;28;20524;-54
2022/04/05 00:45:08;;;;;;;5.37;4.73;;;7.60;83.60;;;7.51;57.62;94737.56;5056462;28;20478;-56
2022/04/05 00:47:35;;;;;;;13.13;4.77;;;7.60;83.60;;;7.49;57.38;94739.47;5057030;28;20848;-56
2022/04/05 00:50:02;;;;;;;8.23;5.73;;;7.60;83.20;;;7.45;56.85;94733.66;5057264;28;20482;-53
2022/04/05 00:52:30;;;;;;;7.20;5.23;;;7.60;83.20;;;7.42;57.40;94731.28;5051975;28;20922;-55
2022/04/05 00:54:57;;;;;;;5.40;4.90;;;7.50;83.20;;;7.38;56.83;94729.88;5056706;28;20479;-53
2022/04/05 00:57:24;;;;;;;7.73;5.43;;;7.50;83.50;;;7.31;56.42;94719.06;5057123;28;20555;-53
2022/04/05 00:59:57;;;;;;;5.30;4.80;;;7.40;83.20;;;7.24;56.73;94715.28;5062104;28;20482;-55
2022/04/05 01:02:28;;;;;;;8.10;6.63;;;7.30;82.60;;;7.17;56.88;94717.56;5054191;28;20443;-54
2022/04/05 01:04:55;;;;;;;7.07;5.03;;;7.30;82.50;;;7.09;56.45;94719.94;5055697;28;20571;-52
2022/04/05 01:07:23;;;;;;;5.97;5.43;;;7.20;83.10;;;7.05;57.23;94720.31;5058458;28;20520;-55
2022/04/05 01:09:53;;;;;;;4.10;3.80;;;7.20;83.10;;;6.99;57.22;94719.03;5058426;28;20482;-55
2022/04/05 01:12:21;;;;;;;4.33;3.93;;;7.10;83.40;;;6.93;57.71;94714.28;5053162;28;20451;-54
2022/04/05 01:14:49;;;;;;;4.60;4.20;;;7.00;83.70;;;6.89;57.79;94712.88;5053052;28;20483;-53
2022/04/05 01:17:17;;;;;;;4.37;3.90;;;7.00;84.00;;;6.86;57.81;94713.09;5057820;28;20490;-54
2022/04/05 01:19:46;;;;;;;7.27;4.27;;;7.00;84.10;;;6.85;58.01;94719.28;5056382;28;20475;-54
2022/04/05 01:22:14;;;;;;;7.93;4.90;;;7.00;84.50;;;6.83;57.71;94719.41;5057432;28;20946;-55
2022/04/05 01:24:43;;;;;;;8.07;5.03;;;7.00;85.00;;;6.81;57.77;94716.91;5057654;28;20486;-53
2022/04/05 01:27:16;;;;;;;9.80;4.83;;;6.90;84.80;;;6.81;57.80;94722.13;5055573;28;20574;-54
2022/04/05 01:29:44;;;;;;;8.60;4.53;;;6.90;85.00;;;6.80;58.17;94714.41;5058016;28;20487;-54
2022/04/05 01:32:11;;;;;;;353.00;118.87;;;6.90;85.70;;;6.79;58.46;94716.19;5060297;28;20571;-54
2022/04/05 01:34:39;;;;;;;92.40;33.87;;;6.90;86.10;;;6.77;58.19;94717.25;5052622;28;20488;-53
2022/04/05 01:37:08;;;;;;;93.77;31.20;;;6.90;85.50;;;6.73;58.49;94708.03;5053067;28;21001;-54
2022/04/05 01:39:36;;;;;;;20.23;8.90;;;6.90;86.10;;;6.72;59.06;94709.78;5051446;28;20511;-54
2022/04/05 01:42:06;;;;;;;9.77;5.83;;;6.80;87.20;;;6.68;59.11;94711.00;5052774;28;20459;-54
2022/04/05 01:44:35;;;;;;;8.07;5.87;;;6.80;86.40;;;6.69;59.40;94709.19;5061054;28;20995;-55
2022/04/05 01:47:06;;;;;;;18.77;4.60;;;6.80;87.50;;;6.69;59.23;94710.03;5052971;28;20993;-55
2022/04/05 01:49:33;;;;;;;8.60;4.80;;;6.80;87.00;;;6.66;59.18;94715.50;5055868;28;20493;-54
2022/04/05 01:52:00;;;;;;;10.30;5.97;;;6.80;87.50;;;6.66;59.15;94712.88;5061113;28;21083;-54
2022/04/05 01:54:28;;;;;;;9.93;5.70;;;6.80;87.00;;;6.62;58.97;94707.06;5057548;28;20859;-54
2022/04/05 01:56:55;;;;;;;14.47;6.40;;;6.70;87.00;;;6.60;59.13;94708.97;5059785;28;21003;-55
2022/04/05 01:59:25;;;;;;;9.43;5.60;;;6.70;86.80;;;6.56;59.06;94704.09;5055378;28;20459;-53
2022/04/05 02:01:53;;;;;;;8.37;5.70;;;6.70;87.50;;;6.55;58.83;94705.06;5053566;28;20452;-53
2022/04/05 02:04:20;;;;;;;7.40;5.30;;;6.60;87.50;;;6.55;59.71;94703.28;5057595;28;20554;-54
2022/04/05 02:06:48;;;;;;;8.60;5.10;;;6.60;88.20;;;6.58;59.59;94704.81;5057490;28;20557;-55
2022/04/05 02:09:15;;;;;;;7.30;5.60;;;6.70;88.40;;;6.58;59.87;94704.81;5055665;28;20847;-54
2022/04/05 02:11:43;;;;;;;19.60;7.80;;;6.70;88.20;;;6.59;59.62;94699.47;5054353;28;20669;-53
2022/04/05 02:14:10;;;;;;;22.27;10.93;;;6.70;88.40;;;6.59;59.22;94696.03;5053383;28;20459;-55
2022/04/05 02:16:39;;;;;;;37.77;14.37;;;6.70;88.20;;;6.61;60.11;94691.50;5054430;28;20502;-52
2022/04/05 02:19:06;;;;;;;9.80;6.00;;;6.70;88.40;;;6.61;59.44;94688.91;5055041;28;20467;-54
2022/04/05 02:21:33;;;;;;;11.07;6.57;;;6.70;87.40;;;6.57;59.01;94690.09;5049568;28;20462;-55
2022/04/05 02:24:01;;;;;;;10.87;6.90;;;6.70;87.50;;;6.51;59.22;94690.59;5055507;28;20465;-55
2022/04/05 02:26:28;;;;;;;9.93;6.90;;;6.60;88.00;;;6.48;59.58;94688.22;5058003;28;20858;-52
2022/04/05 02:28:55;;;;;;;12.27;7.67;;;6.60;87.90;;;6.40;59.12;94683.56;5056479;28;21315;-55
2022/04/05 02:31:22;;;;;;;11.47;7.33;;;6.50;88.10;;;6.34;59.88;94674.44;5052401;28;20468;-59
2022/04/05 02:33:51;;;;;;;7.23;6.27;;;6.50;88.10;;;6.28;59.90;94667.06;5051371;28;20462;-55
2022/04/05 02:36:18;;;;;;;13.20;8.17;;;6.40;88.10;;;6.22;59.77;94668.34;5060388;28;20860;-54
2022/04/05 02:38:45;;;;;;;8.93;6.93;;;6.30;88.00;;;6.18;59.76;94659.13;5054762;28;20463;-54
2022/04/05 02:41:13;;;;;;;9.83;7.10;;;6.30;88.60;;;6.16;60.22;94663.59;5057231;28;20571;-54
2022/04/05 02:43:40;;;;;;;15.73;8.40;;;6.30;89.20;;;6.15;59.66;94655.91;5056890;28;20566;-54
2022/04/05 02:46:08;;;;;;;11.73;7.70;;;6.30;88.70;;;6.14;60.43;94664.69;5053697;28;20553;-55
2022/04/05 02:48:35;;;;;;;9.23;6.77;;;6.30;89.70;;;6.16;60.41;94662.78;5056464;28;20459;-55
2022/04/05 02:51:04;;;;;;;24.20;11.17;;;6.30;90.00;;;6.20;60.71;94665.03;5056700;28;20474;-56
2022/04/05 02:53:31;;;;;;;18.90;10.73;;;6.30;90.10;;;6.24;60.35;94665.63;5057699;28;21025;-54
2022/04/05 02:55:58;;;;;;;14.10;8.90;;;6.30;90.00;;;6.26;61.36;94666.38;5054039;28;20474;-54
2022/04/05 02:58:26;;;;;;;11.33;7.90;;;6.40;90.60;;;6.26;60.94;94668.97;5064317;28;21112;-54
2022/04/05 03:00:53;;;;;;;12.27;6.77;;;6.40;90.40;;;6.20;60.81;94669.44;5064126;28;20901;-54
2022/04/05 03:03:20;;;;;;;9.00;7.17;;;6.30;90.00;;;6.14;60.38;94667.31;5062259;28;21002;-55
2022/04/05 03:05:47;;;;;;;11.43;7.70;;;6.30;89.40;;;6.09;60.42;94670.28;5058001;28;22150;-54
2022/04/05 03:08:16;;;;;;;10.23;7.83;;;6.20;90.10;;;6.03;60.32;94668.94;5054154;28;20467;-56
2022/04/05 03:10:43;;;;;;;15.53;8.10;;;6.20;89.50;;;5.99;60.28;94667.50;5058474;28;20474;-56
2022/04/05 03:13:11;;;;;;;16.87;7.20;;;6.10;89.30;;;5.94;60.38;94661.78;5060851;28;21001;-54
2022/04/05 03:15:38;;;;;;;12.37;7.80;;;6.10;89.60;;;5.91;60.13;94660.22;5061825;28;21121;-54
2022/04/05 03:18:06;;;;;;;14.27;6.67;;;6.10;89.30;;;5.88;60.36;94659.66;5054982;28;20548;-52
2022/04/05 03:20:33;;;;;;;10.87;6.47;;;6.00;90.00;;;5.87;60.43;94673.63;5058485;28;20474;-52
2022/04/05 03:23:01;;;;;;;18.30;6.80;;;6.00;89.30;;;5.85;60.63;94665.09;5058869;28;21307;-55
2022/04/05 03:25:29;;;;;;;10.07;5.57;;;6.00;89.10;;;5.84;60.21;94663.41;5061799;28;20851;-53
2022/04/05 03:27:56;;;;;;;8.97;6.23;;;6.00;89.00;;;5.82;60.47;94660.94;5059617;28;20454;-55
2022/04/05 03:30:24;;;;;;;7.77;6.40;;;6.00;89.60;;;5.81;60.39;94656.69;5058353;28;20528;-55
2022/04/05 03:32:51;;;;;;;44.27;15.60;;;5.90;89.60;;;5.80;60.66;94659.41;5054714;28;20525;-53
2022/04/05 03:35:18;;;;;;;185.07;57.67;;;5.90;89.70;;;5.78;60.72;94663.88;5059237;28;21117;-54
2022/04/05 03:37:46;;;;;;;77.53;27.30;;;5.90;89.90;;;5.77;60.05;94652.63;5059161;28;20486;-54
2022/04/05 03:40:13;;;;;;;15.40;8.00;;;5.90;89.80;;;5.75;60.88;94657.97;5058957;28;20491;-54
2022/04/05 03:42:42;;;;;;;11.70;7.17;;;5.90;90.00;;;5.75;60.75;94660.56;5057245;28;20460;-55
2022/04/05 03:45:10;;;;;;;11.20;6.50;;;5.90;90.00;;;5.75;60.60;94662.34;5057011;28;21038;-55
2022/04/05 03:47:38;;;;;;;7.63;5.83;;;5.90;89.70;;;5.72;60.29;94652.97;5058216;28;20482;-54
2022/04/05 03:50:06;;;;;;;14.57;6.23;;;5.90;89.70;;;5.70;60.05;94646.19;5061870;28;20809;-56
2022/04/05 03:52:33;;;;;;;9.30;6.33;;;5.80;89.00;;;5.68;60.32;94648.91;5063468;28;20971;-56
2022/04/05 03:55:01;;;;;;;12.40;7.20;;;5.90;89.60;;;5.67;60.65;94649.88;5056510;28;21010;-53
2022/04/05 03:57:28;;;;;;;8.97;5.73;;;5.90;90.00;;;5.66;60.24;94644.78;5060933;28;20497;-54
2022/04/05 03:59:57;;;;;;;22.67;7.20;;;5.80;89.50;;;5.66;60.32;94650.81;5057376;28;20479;-53
2022/04/05 04:02:24;;;;;;;12.70;5.87;;;5.80;89.70;;;5.66;60.22;94650.81;5058973;28;20460;-56
2022/04/05 04:04:52;;;;;;;10.17;6.27;;;5.80;89.70;;;5.62;60.62;94638.94;5061471;28;20804;-55
2022/04/05 04:07:19;;;;;;;17.47;6.47;;;5.80;89.70;;;5.63;60.57;94651.06;5057383;28;20447;-58
2022/04/05 04:09:47;;;;;;;11.83;7.13;;;5.80;89.90;;;5.61;60.88;94650.34;5059284;28;20471;-54
2022/04/05 04:12:14;;;;;;;12.83;6.73;;;5.80;90.20;;;5.62;60.52;94654.59;5059679;28;20984;-53
2022/04/05 04:14:42;;;;;;;7.60;6.80;;;5.80;90.00;;;5.61;60.26;94657.31;5058173;28;20471;-54
2022/04/05 04:17:10;;;;;;;16.50;6.20;;;5.80;89.70;;;5.61;60.50;94663.38;5057734;28;20486;-54
2022/04/05 04:19:38;;;;;;;18.60;7.20;;;5.80;89.90;;;5.60;60.64;94661.72;5052653;28;20472;-53
2022/04/05 04:22:05;;;;;;;14.40;7.23;;;5.80;90.00;;;5.60;60.83;94666.94;5059707;28;20447;-54
2022/04/05 04:24:32;;;;;;;11.53;6.67;;;5.70;90.00;;;5.60;60.90;94669.53;5060039;28;20487;-56
2022/04/05 04:27:00;;;;;;;11.90;6.77;;;5.70;90.10;;;5.58;60.56;94668.84;5059599;28;20452;-55
2022/04/05 04:29:27;;;;;;;10.07;6.63;;;5.70;90.00;;;5.57;60.99;94672.38;5060627;28;20470;-53
2022/04/05 04:31:54;;;;;;;17.60;9.27;;;5.70;90.10;;;5.57;60.96;94673.22;5060879;28;20986;-55
2022/04/05 04:34:23;;;;;;;16.87;7.13;;;5.70;90.40;;;5.59;61.24;94674.88;5059030;28;20462;-53
2022/04/05 04:36:50;;;;;;;20.27;9.10;;;5.70;90.40;;;5.62;60.86;94669.44;5056834;28;20455;-54
2022/04/05 04:39:18;;;;;;;19.33;8.20;;;5.80;90.40;;;5.66;61.05;94674.31;5061707;28;20454;-56
2022/04/05 04:41:45;;;;;;;18.90;7.57;;;5.80;90.40;;;5.71;61.05;94677.41;5056358;28;20534;-54
2022/04/05 04:44:12;;;;;;;13.93;8.73;;;5.90;90.40;;;5.75;60.96;94675.41;5058103;28;20980;-53
2022/04/05 04:46:40;;;;;;;20.03;9.43;;;5.90;90.30;;;5.78;60.67;94674.31;5060021;28;20452;-56
2022/04/05 04:49:07;;;;;;;15.60;8.77;;;5.90;90.20;;;5.78;60.62;94664.75;5052451;28;20621;-54
2022/04/05 04:51:36;;;;;;;24.37;9.30;;;5.90;90.10;;;5.81;60.82;94668.88;5052738;28;20459;-57
2022/04/05 04:54:03;;;;;;;15.93;8.67;;;5.90;90.20;;;5.85;60.59;94672.91;5057344;28;20447;-56
2022/04/05 04:56:31;;;;;;;14.67;8.20;;;6.00;90.20;;;5.86;60.46;94667.59;5055521;28;20471;-56
2022/04/05 04:58:58;;;;;;;18.27;11.07;;;6.00;90.30;;;5.87;60.96;94674.47;5052914;28;20494;-53
2022/04/05 05:01:25;;;;;;;14.37;8.73;;;6.00;90.50;;;5.88;60.84;94670.91;5052357;28;20479;-55
2022/04/05 05:03:52;;;;;;;32.03;9.70;;;6.00;90.30;;;5.91;60.63;94675.06;5052704;28;20456;-55
2022/04/05 05:06:20;;;;;;;33.40;8.63;;;6.00;90.10;;;5.92;60.50;94677.56;5058434;28;21021;-54
2022/04/05 05:08:49;;;;;;;27.47;8.77;;;6.10;90.10;;;5.95;60.90;94683.50;5056625;28;20888;-54
2022/04/05 05:11:16;;;;;;;35.27;10.37;;;6.10;90.30;;;5.96;60.82;94672.13;5059999;28;20474;-54
2022/04/05 05:13:43;;;;;;;25.90;10.57;;;6.10;90.10;;;5.96;60.47;94679.94;5052073;28;20444;-55
2022/04/05 05:16:11;;;;;;;24.40;9.60;;;6.10;90.00;;;5.97;60.38;94684.25;5050904;28;20645;-53
2022/04/05 05:18:38;;;;;;;27.93;9.53;;;6.10;90.10;;;6.00;60.24;94682.25;5057260;28;20491;-53
2022/04/05 05:21:06;;;;;;;17.07;9.40;;;6.10;90.00;;;6.03;60.59;94687.22;5055979;28;21011;-55
2022/04/05 05:23:33;;;;;;;25.53;9.00;;;6.20;90.50;;;6.07;60.33;94686.06;5051916;28;21008;-52
2022/04/05 05:26:02;;;;;;;34.73;8.90;;;6.20;90.10;;;6.14;60.50;94690.81;5057122;28;20478;-55
2022/04/05 05:28:29;;;;;;;24.63;9.43;;;6.20;90.10;;;6.19;60.86;94693.88;5056005;28;20491;-55
2022/04/05 05:30:56;;;;;;;23.43;8.00;;;6.30;90.40;;;6.23;59.97;94693.53;5057214;28;20468;-54
2022/04/05 05:33:23;;;;;;;22.43;7.60;;;6.30;90.00;;;6.31;60.16;94692.94;5054473;28;20447;-58
2022/04/05 05:35:51;;;;;;;16.33;6.80;;;6.40;90.00;;;6.36;59.62;94701.25;5060102;28;20478;-54
2022/04/05 05:38:18;;;;;;;14.23;6.37;;;6.50;88.90;;;6.38;59.14;94699.38;5053082;28;20567;-54
2022/04/05 05:40:45;;;;;;;13.70;6.83;;;6.50;88.60;;;6.41;58.95;94696.53;5054383;28;20631;-56
2022/04/05 05:43:14;;;;;;;12.63;7.50;;;6.50;88.10;;;6.49;59.06;94702.91;5057368;28;20443;-53
2022/04/05 05:45:41;;;;;;;9.77;5.87;;;6.50;87.90;;;6.58;59.21;94707.44;5049776;28;20483;-55
2022/04/05 05:48:09;;;;;;;9.20;6.30;;;6.60;87.60;;;6.71;58.63;94702.91;5056504;28;20560;-53
2022/04/05 05:50:36;;;;;;;8.83;7.57;;;6.70;88.00;;;6.87;58.35;94704.31;5057616;28;20471;-54
2022/04/05 05:53:04;;;;;;;10.03;6.37;;;6.90;87.40;;;7.05;58.20;94707.25;5056689;28;20459;-55
2022/04/05 05:55:32;;;;;;;8.43;6.50;;;7.00;86.90;;;7.25;57.58;94697.78;5057146;28;20478;-53
2022/04/05 05:57:59;;;;;;;11.17;6.60;;;7.20;86.40;;;7.46;57.54;94693.44;5048606;28;20495;-55
2022/04/05 06:00:28;;;;;;;6.73;5.97;;;7.40;85.60;;;7.65;57.37;94686.69;5054558;28;20851;-54
2022/04/05 06:02:58;;;;;;;13.87;6.63;;;7.60;85.20;;;7.86;56.93;94686.72;5054143;28;20444;-53
2022/04/05 06:05:25;;;;;;;12.03;6.40;;;7.80;85.20;;;8.01;56.35;94692.44;5055573;28;20483;-53
2022/04/05 06:07:52;;;;;;;7.60;5.60;;;8.00;84.00;;;8.19;55.88;94696.13;5057920;28;20465;-54
2022/04/05 06:10:20;;;;;;;15.63;7.40;;;8.10;83.20;;;8.40;55.21;94697.91;5048616;28;20475;-55
2022/04/05 06:12:49;;;;;;;16.53;5.70;;;8.30;82.90;;;8.63;54.95;94687.25;5055640;28;21035;-54
2022/04/05 06:15:17;;;;;;;19.33;6.70;;;8.50;82.40;;;8.87;55.14;94693.00;5055142;28;21033;-54
2022/04/05 06:17:47;;;;;;;15.80;7.40;;;8.80;82.50;;;9.11;55.12;94686.59;5054269;28;20487;-55
2022/04/05 06:20:16;;;;;;;9.53;7.10;;;9.00;82.40;;;9.35;54.99;94688.81;5049775;28;20468;-55
2022/04/05 06:22:47;;;;;;;14.37;8.40;;;9.20;82.20;;;9.57;54.47;94687.72;5048223;28;20448;-55
2022/04/05 06:25:16;;;;;;;18.13;8.13;;;9.40;80.90;;;9.77;53.91;94677.22;5053398;28;20517;-56
2022/04/05 06:27:43;;;;;;;11.13;8.20;;;9.60;80.30;;;9.95;53.54;94685.22;5058039;28;20527;-57
2022/04/05 06:30:11;;;;;;;9.63;7.57;;;9.80;78.90;;;10.10;52.96;94681.19;5058941;28;20474;-55
2022/04/05 06:32:39;;;;;;;9.97;6.87;;;10.00;77.20;;;10.24;52.86;94682.53;5051968;28;20440;-56
2022/04/05 06:35:09;;;;;;;15.00;7.93;;;10.10;76.40;;;10.44;52.80;94675.47;5053894;28;20475;-55
2022/04/05 06:37:36;;;;;;;18.93;8.27;;;10.30;77.20;;;10.61;51.97;94680.91;5059114;28;20977;-56
2022/04/05 06:40:05;;;;;;;21.00;8.23;;;10.50;75.10;;;10.75;51.68;94670.75;5058976;28;20848;-56
2022/04/05 06:42:33;;;;;;;13.53;8.90;;;10.70;74.40;;;10.82;51.62;94670.16;5066481;28;21024;-55
2022/04/05 06:45:00;;;;;;;12.50;7.90;;;10.70;74.10;;;10.79;51.16;94679.16;5057340;28;20525;-54
2022/04/05 06:47:28;;;;;;;10.70;8.13;;;10.80;73.30;;;10.79;51.66;94676.53;5060453;28;20492;-55
2022/04/05 06:49:55;;;;;;;12.83;8.50;;;10.70;73.80;;;10.85;51.72;94672.50;5058694;28;20538;-57
2022/04/05 06:52:24;;;;;;;15.90;9.33;;;10.70;74.10;;;10.94;51.19;94671.63;5058083;28;20447;-56
2022/04/05 06:54:51;;;;;;;28.93;9.00;;;10.80;73.80;;;11.03;51.12;94667.25;5057301;28;20471;-56
2022/04/05 06:57:19;;;;;;;14.03;7.40;;;10.90;73.80;;;11.17;51.27;94673.84;5065231;28;20449;-53
2022/04/05 06:59:46;;;;;;;16.20;8.70;;;11.00;73.80;;;11.30;51.03;94661.16;5057211;28;20508;-53
2022/04/05 07:02:14;;;;;;;16.93;9.30;;;11.10;73.60;;;11.48;50.74;94667.25;5060001;28;20492;-55
2022/04/05 07:04:42;;;;;;;13.23;8.00;;;11.30;73.40;;;11.62;50.48;94672.97;5058804;28;20584;-56
2022/04/05 07:07:09;;;;;;;18.47;9.60;;;11.50;72.60;;;11.68;50.39;94671.53;5056573;28;20459;-56
2022/04/05 07:09:38;;;;;;;11.20;8.47;;;11.50;71.50;;;11.81;50.49;94662.25;5060494;28;20504;-56
2022/04/05 07:12:07;;;;;;;11.63;8.23;;;11.60;72.30;;;12.02;50.17;94663.75;5061056;28;20455;-56
2022/04/05 07:14:34;;;;;;;13.77;9.10;;;11.80;72.20;;;12.23;49.75;94667.88;5063642;28;20544;-57
2022/04/05 07:17:02;;;;;;;15.70;8.10;;;12.00;71.30;;;12.39;49.27;94670.59;5057462;28;21027;-55
2022/04/05 07:19:29;;;;;;;19.47;9.27;;;12.20;70.10;;;12.54;49.14;94657.66;5053809;28;20497;-57
2022/04/05 07:21:57;;;;;;;10.13;8.00;;;12.30;69.80;;;12.69;48.61;94664.00;5056092;28;21015;-56
2022/04/05 07:24:24;;;;;;;10.40;7.37;;;12.50;68.80;;;12.96;48.90;94663.94;5061921;28;20501;-55
2022/04/05 07:26:54;;;;;;;11.83;7.57;;;12.70;69.90;;;13.34;48.30;94659.13;5059584;28;21110;-56
2022/04/05 07:29:21;;;;;;;13.73;7.60;;;13.00;68.80;;;13.72;47.04;94656.88;5054370;28;20965;-56
2022/04/05 07:31:48;;;;;;;14.67;7.57;;;13.40;66.30;;;14.13;46.99;94659.53;5060381;28;20439;-56
2022/04/05 07:34:16;;;;;;;15.80;7.57;;;13.80;66.30;;;14.55;46.30;94661.09;5059596;28;20792;-56
2022/04/05 07:36:43;;;;;;;23.40;8.00;;;14.20;64.50;;;14.99;45.97;94660.63;5058759;28;20447;-57
2022/04/05 07:39:13;;;;;;;20.20;7.10;;;14.70;64.40;;;15.47;45.14;94657.09;5058799;28;20998;-57
2022/04/05 07:41:40;;;;;;;18.43;7.60;;;15.10;62.30;;;15.86;44.38;94657.00;5058997;28;20451;-56
2022/04/05 07:44:09;;;;;;;12.30;7.23;;;15.50;60.40;;;16.25;44.37;94661.34;5056900;28;20454;-57
2022/04/05 07:46:37;;;;;;;18.10;8.63;;;15.90;60.50;;;16.56;43.29;94652.41;5059669;28;20530;-57
2022/04/05 07:49:04;;;;;;;12.47;6.53;;;16.20;58.70;;;16.98;42.54;94655.47;5058694;28;20454;-56
2022/04/05 07:51:31;;;;;;;9.57;6.40;;;16.60;56.70;;;17.48;42.24;94651.13;5054248;28;20456;-56
2022/04/05 07:53:59;;;;;;;8.13;6.63;;;17.10;57.00;;;18.04;41.53;94655.00;5056316;28;20871;-56
2022/04/05 07:56:26;;;;;;;19.13;7.43;;;17.70;56.10;;;18.63;40.52;94653.78;5054823;28;20570;-57
2022/04/05 07:58:53;;;;;;;10.83;8.30;;;18.30;54.40;;;19.15;40.38;94649.81;5057397;28;20898;-55
2022/04/05 08:01:24;;;;;;;10.80;5.80;;;19.00;53.10;;;19.67;38.60;94647.53;5054676;28;20475;-56
2022/04/05 08:03:52;;;;;;;14.50;6.60;;;19.60;51.30;;;20.16;39.05;94648.25;5054667;28;21072;-55
2022/04/05 08:06:19;;;;;;;22.53;6.30;;;20.10;51.40;;;20.62;37.73;94638.56;5055748;28;20472;-55
2022/04/05 08:08:46;;;;;;;10.43;6.97;;;20.60;49.60;;;21.04;35.90;94644.47;5056467;28;20457;-55
2022/04/05 08:11:14;;;;;;;9.30;5.70;;;21.00;46.90;;;21.29;36.80;94641.91;5059125;28;20479;-56
2022/04/05 08:13:41;;;;;;;8.20;6.20;;;21.30;47.50;;;21.56;36.13;94641.00;5057575;28;20784;-55
2022/04/05 08:16:08;;;;;;;12.23;6.53;;;21.60;46.40;;;21.87;35.14;94636.69;5057498;28;20900;-53
2022/04/05 08:18:37;;;;;;;6.90;5.90;;;21.80;45.10;;;22.12;35.94;94634.06;5054162;28;20497;-56
2022/04/05 08:21:05;;;;;;;10.93;5.90;;;22.10;46.30;;;22.39;34.08;94637.38;5058559;28;20479;-56
2022/04/05 08:23:33;;;;;;;9.30;5.30;;;22.40;44.10;;;22.56;34.07;94638.47;5055218;28;20467;-57
2022/04/05 08:26:00;;;;;;;7.00;5.60;;;22.70;43.90;;;22.69;34.46;94629.47;5061089;28;20559;-58
2022/04/05 08:28:28;;;;;;;9.37;7.03;;;22.90;43.70;;;22.81;33.74;94629.56;5056326;28;20448;-57
2022/04/05 08:30:55;;;;;;;8.53;6.70;;;23.10;42.60;;;22.77;33.48;94631.03;5055893;28;20482;-56
2022/04/05 08:33:23;;;;;;;6.63;5.87;;;23.20;42.50;;;22.86;33.15;94628.91;5055543;28;20585;-57
2022/04/05 08:35:52;;;;;;;15.27;6.37;;;23.30;42.10;;;22.99;32.39;94623.41;5057374;28;20494;-55
2022/04/05 08:38:20;;;;;;;8.57;6.63;;;23.40;41.30;;;23.03;31.46;94618.41;5062355;28;20454;-55
2022/04/05 08:40:47;;;;;;;8.10;6.23;;;23.50;40.50;;;22.94;32.19;94615.19;5050013;28;20900;-57
2022/04/05 08:43:15;;;;;;;7.60;5.90;;;23.40;40.70;;;22.94;32.04;94612.50;5057733;28;20455;-57
2022/04/05 08:45:43;;;;;;;8.27;5.10;;;23.30;40.60;;;22.96;31.47;94606.91;5058227;28;20467;-55
2022/04/05 08:48:11;;;;;;;10.83;7.50;;;23.20;39.60;;;22.99;30.15;94601.09;5055711;28;21000;-55
2022/04/05 08:50:38;;;;;;;8.90;6.60;;;23.20;38.90;;;22.87;30.64;94606.41;5050475;28;20472;-58
2022/04/05 08:53:07;;;;;;;10.73;6.60;;;23.00;38.50;;;22.72;31.75;94601.41;5055254;28;20462;-56
2022/04/05 08:55:35;;;;;;;12.57;7.00;;;22.80;39.60;;;22.67;30.73;94593.22;5055881;28;20557;-57
2022/04/05 08:58:03;;;;;;;7.43;6.73;;;22.70;38.80;;;22.60;30.49;94593.25;5055210;28;20456;-56
2022/04/05 09:00:30;;;;;;;13.57;6.87;;;22.50;37.60;;;22.37;29.83;94589.38;5051340;28;20500;-56
2022/04/05 09:02:59;;;;;;;9.80;6.40;;;22.40;38.00;;;22.28;31.30;94589.84;5055076;28;20455;-56
2022/04/05 09:05:32;;;;;;;11.73;6.27;;;22.20;39.20;;;22.29;29.92;94578.06;5057616;28;20486;-57
2022/04/05 09:08:22;;;;;;;13.80;5.77;;;22.10;38.90;;;22.31;30.49;94584.06;5057833;28;20447;-56
2022/04/05 09:10:52;;;;;;;10.47;6.07;;;22.10;39.00;;;22.22;30.69;94583.50;5060405;28;20477;-57
2022/04/05 09:13:22;;;;;;;7.60;5.80;;;22.00;39.60;;;21.92;30.28;94570.75;5051106;28;20467;-57
2022/04/05 09:15:52;;;;;;;11.83;5.63;;;21.80;38.00;;;21.70;31.12;94572.16;5053536;28;20482;-56
2022/04/05 09:18:38;;;;;;;10.00;6.53;;;21.60;39.20;;;21.55;30.00;94575.94;5057239;28;20618;-56
2022/04/05 09:21:10;;;;;;;11.40;5.47;;;21.40;38.40;;;21.40;30.44;94568.16;5049713;28;20516;-59
2022/04/05 09:23:41;;;;;;;9.70;5.67;;;21.20;38.40;;;21.40;28.75;94557.47;5052975;28;20447;-57
2022/04/05 09:26:09;;;;;;;5.63;4.10;;;21.10;36.30;;;21.44;29.59;94565.88;5059199;28;20531;-57
2022/04/05 09:28:38;;;;;;;4.70;4.20;;;21.10;36.60;;;21.42;28.22;94566.09;5055078;28;20447;-56
2022/04/05 09:31:09;;;;;;;8.40;4.43;;;21.10;34.50;;;21.34;28.89;94563.69;5053149;28;20557;-57
2022/04/05 09:33:38;;;;;;;4.63;3.90;;;21.10;35.70;;;21.31;28.64;94559.56;5052820;28;21066;-56
2022/04/05 09:36:12;;;;;;;3.77;3.47;;;21.00;35.40;;;21.39;28.01;94549.66;5053964;28;20815;-56
2022/04/05 09:38:42;;;;;;;3.80;3.50;;;21.10;35.00;;;21.44;28.59;94548.00;5058066;28;20447;-56
2022/04/05 09:41:19;;;;;;;3.50;3.30;;;21.10;36.40;;;21.19;27.73;94544.41;5054900;28;20474;-55
2022/04/05 09:43:56;;;;;;;5.03;3.80;;;21.00;34.70;;;21.12;28.01;94537.25;5057124;28;20817;-57
2022/04/05 09:46:23;;;;;;;5.93;5.40;;;20.80;35.30;;;21.03;27.20;94538.53;5050193;28;20539;-56
2022/04/05 09:49:07;;;;;;;6.60;3.93;;;20.80;34.10;;;21.07;27.74;94533.59;5049961;28;20540;-56
2022/04/05 09:51:40;;;;;;;5.13;4.27;;;20.70;34.70;;;21.14;27.22;94531.69;5059387;28;20849;-58
2022/04/05 09:54:09;;;;;;;4.80;3.50;;;20.80;33.50;;;21.20;27.70;94530.03;5053542;28;20467;-56
2022/04/05 09:56:39;;;;;;;5.33;3.60;;;20.90;34.00;;;21.10;26.39;94531.31;5055220;28;20448;-56
2022/04/05 09:59:17;;;;;;;4.37;3.53;;;20.80;33.40;;;20.99;27.84;94529.31;5050802;28;21034;-56
2022/04/05 10:01:45;;;;;;;15.60;4.40;;;20.80;34.60;;;21.05;28.07;94523.09;5053401;28;20878;-58
2022/04/05 10:04:13;;;;;;;5.80;4.20;;;20.80;35.00;;;21.22;27.87;94527.94;5058530;28;21021;-57
2022/04/05 10:06:43;;;;;;;4.73;4.23;;;20.90;34.80;;;21.27;26.88;94525.44;5050092;28;20533;-56
2022/04/05 10:09:12;;;;;;;6.17;4.43;;;20.90;32.90;;;21.20;26.80;94520.13;5052782;28;20839;-57
2022/04/05 10:11:40;;;;;;;10.30;3.90;;;20.90;33.60;;;21.18;27.79;94524.03;5055031;28;20451;-58
2022/04/05 10:14:09;;;;;;;4.80;3.80;;;20.90;34.20;;;21.23;26.24;94524.25;5055269;28;20469;-56
2022/04/05 10:16:37;;;;;;;4.90;4.50;;;20.90;33.90;;;21.19;27.54;94513.13;5057861;28;20573;-56
2022/04/05 10:19:05;;;;;;;4.70;4.03;;;20.90;34.30;;;21.20;27.16;94500.59;5053188;28;21008;-56
2022/04/05 10:21:35;;;;;;;4.83;4.43;;;20.90;33.40;;;21.18;28.23;94505.31;5055043;28;20883;-56
2022/04/05 10:24:03;;;;;;;5.80;4.37;;;20.90;35.30;;;21.12;27.97;94490.97;5053806;28;20820;-56
2022/04/05 10:26:33;;;;;;;10.53;4.20;;;20.90;34.80;;;21.13;28.06;94496.09;5056233;28;20471;-58